createdAt,value
2022-12-31T00:01:22.981Z,98191.94
2022-12-31T00:17:12.698Z,98190.98
2022-12-31T00:20:15.393Z,98184.98
2022-12-31T00:28:50.508Z,98176.78
2022-12-31T00:31:53.083Z,98181.17
2022-12-31T00:34:56.490Z,98192.86
2022-12-31T00:37:58.857Z,98194.63
2022-12-31T00:41:01.414Z,98202.13
2022-12-31T00:44:06.915Z,98201.84
2022-12-31T00:47:12.423Z,98201.44
2022-12-31T00:50:15.213Z,98204.27
2022-12-31T00:53:17.489Z,98208.33
2022-12-31T00:56:26.376Z,98210.65
2022-12-31T00:59:29.973Z,98215.10
2022-12-31T01:02:32.563Z,98218.41
2022-12-31T01:05:36.943Z,98221.88
2022-12-31T01:08:39.366Z,98217.95
2022-12-31T01:11:41.969Z,98229.88
2022-12-31T01:14:48.308Z,98221.34
2022-12-31T01:17:52.958Z,98214.98
2022-12-31T01:25:06.276Z,98211.73
2022-12-31T01:30:10.773Z,98209.48
2022-12-31T01:46:16.922Z,98205.79
2022-12-31T01:53:40.852Z,98199.13
2022-12-31T02:01:37.924Z,98206.67
2022-12-31T02:04:53.367Z,98209.33
2022-12-31T02:08:13.591Z,98207.30
2022-12-31T02:12:00.622Z,98204.35
2022-12-31T02:15:15.123Z,98197.19
2022-12-31T02:18:49.694Z,98204.44
2022-12-31T02:22:28.007Z,98194.80
2022-12-31T02:26:02.152Z,98179.84
2022-12-31T02:30:06.658Z,98172.92
2022-12-31T02:34:28.755Z,98165.39
2022-12-31T02:38:49.378Z,98164.36
2022-12-31T02:41:57.379Z,98169.84
2022-12-31T02:44:59.590Z,98167.83
2022-12-31T02:48:22.154Z,98166.75
2022-12-31T02:51:33.546Z,98167.30
2022-12-31T02:55:13.312Z,98170.03
2022-12-31T02:58:22.244Z,98178.21
2022-12-31T03:01:54.005Z,98181.52
2022-12-31T03:05:19.537Z,98175.19
2022-12-31T03:09:15.201Z,98186.65
2022-12-31T03:24:28.807Z,98173.80
2022-12-31T03:27:30.881Z,98189.73
2022-12-31T03:30:33.934Z,98187.84
2022-12-31T03:33:39.349Z,98181.13
2022-12-31T03:36:41.407Z,98174.88
2022-12-31T03:39:43.571Z,98179.56
2022-12-31T03:42:46.054Z,98188.55
2022-12-31T03:45:53.193Z,98195.73
2022-12-31T03:48:56.568Z,98202.39
2022-12-31T03:51:59.216Z,98210.20
2022-12-31T03:55:05.324Z,98218.66
2022-12-31T03:58:07.959Z,98223.67
2022-12-31T04:01:10.434Z,98206.42
2022-12-31T04:04:12.449Z,98199.11
2022-12-31T04:07:14.565Z,98194.28
2022-12-31T04:10:24.964Z,98214.35
2022-12-31T04:13:58.787Z,98212.39
2022-12-31T04:17:16.353Z,98211.85
2022-12-31T04:20:21.045Z,98210.31
2022-12-31T04:23:49.340Z,98218.28
2022-12-31T04:29:32.728Z,98221.84
2022-12-31T04:33:09.261Z,98230.39
2022-12-31T04:56:44.296Z,98261.58
2022-12-31T05:00:51.467Z,98257.15
2022-12-31T05:09:57.650Z,98256.52
2022-12-31T05:13:55.908Z,98250.09
2022-12-31T05:17:11.337Z,98248.23
2022-12-31T05:20:15.437Z,98237.91
2022-12-31T05:23:19.092Z,98237.89
2022-12-31T05:26:22.588Z,98236.23
2022-12-31T05:29:25.971Z,98239.54
2022-12-31T05:32:29.727Z,98235.55
2022-12-31T05:35:33.328Z,98245.02
2022-12-31T05:38:38.520Z,98247.90
2022-12-31T05:41:42.009Z,98248.70
2022-12-31T05:44:47.185Z,98247.92
2022-12-31T05:47:50.596Z,98242.70
2022-12-31T05:50:54.215Z,98253.50
2022-12-31T05:53:57.907Z,98253.11
2022-12-31T05:57:01.306Z,98251.95
2022-12-31T06:00:07.014Z,98253.04
2022-12-31T06:03:16.835Z,98266.86
2022-12-31T06:06:20.165Z,98286.39
2022-12-31T06:09:23.718Z,98285.45
2022-12-31T06:12:27.056Z,98281.30
2022-12-31T06:15:30.721Z,98277.66
2022-12-31T06:18:34.368Z,98280.38
2022-12-31T06:21:39.589Z,98274.30
2022-12-31T06:24:44.010Z,98261.31
2022-12-31T06:27:47.465Z,98244.59
2022-12-31T06:30:50.850Z,98233.48
2022-12-31T06:33:54.596Z,98244.89
2022-12-31T06:36:59.370Z,98259.09
2022-12-31T06:40:03.266Z,98263.22
2022-12-31T06:43:06.649Z,98267.83
2022-12-31T06:46:14.968Z,98268.81
2022-12-31T06:49:18.394Z,98274.69
2022-12-31T06:52:22.588Z,98275.93
2022-12-31T06:55:29.758Z,98281.78
2022-12-31T06:58:33.633Z,98282.98
2022-12-31T07:01:44.447Z,98279.85
2022-12-31T07:05:29.596Z,98286.82
2022-12-31T07:08:57.518Z,98291.14
2022-12-31T07:12:26.221Z,98294.91
2022-12-31T07:16:08.397Z,98302.44
2022-12-31T07:20:05.185Z,98311.36
2022-12-31T07:23:24.399Z,98311.02
2022-12-31T07:27:41.158Z,98299.30
2022-12-31T07:31:06.545Z,98299.67
2022-12-31T07:34:43.162Z,98299.59
2022-12-31T07:38:08.805Z,98301.48
2022-12-31T07:41:49.231Z,98313.92
2022-12-31T07:45:14.621Z,98320.73
2022-12-31T07:48:26.649Z,98326.46
2022-12-31T07:51:30.235Z,98326.73
2022-12-31T07:54:33.564Z,98320.98
2022-12-31T07:57:55.700Z,98318.49
2022-12-31T08:01:01.008Z,98321.58
2022-12-31T08:04:04.412Z,98340.38
2022-12-31T08:07:35.009Z,98341.97
2022-12-31T08:11:02.098Z,98340.46
2022-12-31T08:14:10.200Z,98331.84
2022-12-31T08:17:15.608Z,98316.58
2022-12-31T08:20:19.091Z,98301.11
2022-12-31T08:23:28.587Z,98305.98
2022-12-31T08:26:42.028Z,98315.11
2022-12-31T08:30:07.400Z,98330.70
2022-12-31T08:33:22.568Z,98342.04
2022-12-31T08:36:37.557Z,98345.54
2022-12-31T08:40:08.511Z,98346.25
2022-12-31T08:43:21.033Z,98336.07
2022-12-31T08:46:45.871Z,98340.15
2022-12-31T08:49:49.714Z,98339.55
2022-12-31T08:52:53.428Z,98339.51
2022-12-31T08:56:08.054Z,98329.61
2022-12-31T08:59:36.745Z,98316.52
2022-12-31T09:03:03.466Z,98329.67
2022-12-31T09:06:16.027Z,98321.48
2022-12-31T09:09:25.044Z,98324.38
2022-12-31T09:12:49.319Z,98318.73
2022-12-31T09:16:17.506Z,98332.45
2022-12-31T09:19:20.919Z,98330.35
2022-12-31T09:22:24.471Z,98322.30
2022-12-31T09:25:29.093Z,98322.38
2022-12-31T09:29:24.830Z,98322.10
2022-12-31T09:32:46.473Z,98314.36
2022-12-31T09:36:01.341Z,98308.85
2022-12-31T09:39:16.857Z,98311.15
2022-12-31T09:43:03.329Z,98325.04
2022-12-31T09:46:21.352Z,98337.76
2022-12-31T09:49:47.657Z,98337.47
2022-12-31T09:53:10.173Z,98336.55
2022-12-31T09:56:25.516Z,98335.77
2022-12-31T09:59:45.755Z,98337.25
2022-12-31T10:03:17.154Z,98337.31
2022-12-31T10:06:26.155Z,98325.17
2022-12-31T10:09:38.317Z,98323.70
2022-12-31T10:13:03.683Z,98322.54
2022-12-31T10:16:28.821Z,98322.78
2022-12-31T10:20:10.606Z,98329.53
2022-12-31T10:23:32.103Z,98329.39
2022-12-31T10:27:09.375Z,98328.61
2022-12-31T10:30:20.421Z,98316.77
2022-12-31T10:34:23.074Z,98324.71
2022-12-31T10:37:33.199Z,98329.50
2022-12-31T10:40:42.603Z,98333.27
2022-12-31T10:44:15.067Z,98338.38
2022-12-31T10:47:41.247Z,98339.79
2022-12-31T10:50:55.018Z,98339.50
2022-12-31T10:54:04.102Z,98339.67
2022-12-31T10:57:36.165Z,98337.58
2022-12-31T11:01:06.210Z,98322.14
2022-12-31T11:04:27.929Z,98326.10
2022-12-31T11:08:02.069Z,98314.84
2022-12-31T11:11:14.000Z,98314.66
2022-12-31T11:14:42.825Z,98318.43
2022-12-31T11:17:48.563Z,98313.06
2022-12-31T11:21:17.210Z,98319.27
2022-12-31T11:24:47.221Z,98317.24
2022-12-31T11:27:56.415Z,98315.13
2022-12-31T11:31:02.658Z,98313.88
2022-12-31T11:34:38.001Z,98308.77
2022-12-31T11:37:54.631Z,98311.86
2022-12-31T11:41:08.249Z,98309.52
2022-12-31T11:44:35.583Z,98312.13
2022-12-31T11:48:28.706Z,98309.78
2022-12-31T11:51:25.708Z,98308.29
2022-12-31T11:54:43.032Z,98309.80
2022-12-31T11:57:51.310Z,98307.14
2022-12-31T12:01:33.738Z,98305.89
2022-12-31T12:04:37.032Z,98295.77
2022-12-31T12:07:40.251Z,98288.16
2022-12-31T12:10:51.033Z,98286.65
2022-12-31T12:13:54.425Z,98285.72
2022-12-31T12:17:04.318Z,98286.11
2022-12-31T12:20:24.708Z,98287.20
2022-12-31T12:23:28.060Z,98285.14
2022-12-31T12:26:41.671Z,98281.46
2022-12-31T12:29:47.491Z,98288.13
2022-12-31T12:33:02.279Z,98280.52
2022-12-31T12:36:11.497Z,98281.77
2022-12-31T12:39:32.585Z,98277.05
2022-12-31T12:42:36.182Z,98269.92
2022-12-31T12:45:51.357Z,98263.94
2022-12-31T12:48:57.513Z,98262.54
2022-12-31T12:52:27.585Z,98257.98
2022-12-31T12:55:43.233Z,98248.09
2022-12-31T12:58:58.471Z,98250.77
2022-12-31T13:02:39.471Z,98253.20
2022-12-31T13:05:52.494Z,98250.69
2022-12-31T13:09:01.599Z,98251.48
2022-12-31T13:12:08.065Z,98254.60
2022-12-31T13:15:34.162Z,98253.05
2022-12-31T13:18:49.259Z,98258.46
2022-12-31T13:22:04.236Z,98265.13
2022-12-31T13:25:28.852Z,98258.63
2022-12-31T13:28:34.330Z,98266.30
2022-12-31T13:31:39.627Z,98271.73
2022-12-31T13:34:46.492Z,98280.19
2022-12-31T13:37:53.118Z,98288.83
2022-12-31T13:41:18.397Z,98291.88
2022-12-31T13:44:30.957Z,98295.58
2022-12-31T13:47:40.862Z,98296.44
2022-12-31T13:51:01.848Z,98300.91
2022-12-31T13:54:24.644Z,98304.52
2022-12-31T13:57:37.470Z,98303.56
2022-12-31T14:01:01.907Z,98303.16
2022-12-31T14:04:19.955Z,98299.80
2022-12-31T14:07:45.395Z,98304.73
2022-12-31T14:10:58.199Z,98304.65
2022-12-31T14:14:01.462Z,98307.87
2022-12-31T14:17:11.299Z,98304.41
2022-12-31T14:20:29.011Z,98306.44
2022-12-31T14:23:59.543Z,98312.73
2022-12-31T14:27:09.243Z,98314.46
2022-12-31T14:30:22.072Z,98313.66
2022-12-31T14:33:41.748Z,98311.95
2022-12-31T14:37:00.265Z,98306.99
2022-12-31T14:40:37.191Z,98307.08
2022-12-31T14:43:48.474Z,98314.45
2022-12-31T14:47:08.552Z,98325.36
2022-12-31T14:50:15.441Z,98320.96
2022-12-31T14:53:25.013Z,98316.50
2022-12-31T14:56:33.372Z,98320.43
2022-12-31T14:59:40.387Z,98321.30
2022-12-31T15:02:51.120Z,98319.64
2022-12-31T15:06:03.739Z,98320.52
2022-12-31T15:09:15.608Z,98324.59
2022-12-31T15:12:24.417Z,98327.48
2022-12-31T15:15:33.505Z,98325.77
2022-12-31T15:18:55.471Z,98321.45
2022-12-31T15:22:14.290Z,98324.36
2022-12-31T15:25:33.863Z,98325.07
2022-12-31T15:28:41.030Z,98326.55
2022-12-31T15:31:49.944Z,98332.84
2022-12-31T15:35:24.161Z,98342.42
2022-12-31T15:38:35.065Z,98335.75
2022-12-31T15:41:46.147Z,98339.77
2022-12-31T15:45:06.407Z,98344.48
2022-12-31T15:48:23.898Z,98351.61
2022-12-31T15:51:34.599Z,98353.52
2022-12-31T15:54:42.546Z,98355.54
2022-12-31T15:57:46.562Z,98353.98
2022-12-31T16:01:05.005Z,98356.43
2022-12-31T16:04:16.637Z,98351.72
2022-12-31T16:07:20.682Z,98350.47
2022-12-31T16:10:28.207Z,98354.70
2022-12-31T16:13:35.028Z,98353.45
2022-12-31T16:16:38.593Z,98358.63
2022-12-31T16:19:49.083Z,98365.39
2022-12-31T16:22:56.251Z,98363.41
2022-12-31T16:26:02.547Z,98362.80
2022-12-31T16:29:05.981Z,98354.56
2022-12-31T16:32:15.855Z,98358.42
2022-12-31T16:35:28.676Z,98355.27
2022-12-31T16:38:37.039Z,98359.75
2022-12-31T16:41:44.166Z,98367.38
2022-12-31T16:44:48.573Z,98376.09
2022-12-31T16:47:52.095Z,98369.03
2022-12-31T16:50:56.984Z,98368.64
2022-12-31T16:54:02.140Z,98368.73
2022-12-31T16:57:19.262Z,98372.80
2022-12-31T17:00:25.318Z,98372.50
2022-12-31T17:03:29.729Z,98375.33
2022-12-31T17:06:33.793Z,98384.67
2022-12-31T17:09:38.011Z,98391.42
2022-12-31T17:16:20.436Z,98393.23
2022-12-31T17:19:38.894Z,98389.09
2022-12-31T17:22:44.357Z,98393.81
2022-12-31T17:25:47.722Z,98392.33
2022-12-31T17:28:53.273Z,98384.71
2022-12-31T17:32:23.795Z,98383.45
2022-12-31T17:35:30.944Z,98388.09
2022-12-31T17:38:36.286Z,98394.85
2022-12-31T17:41:39.523Z,98402.80
2022-12-31T17:44:44.730Z,98396.75
2022-12-31T17:47:51.190Z,98402.55
2022-12-31T17:51:01.597Z,98402.56
2022-12-31T17:54:17.941Z,98406.90
2022-12-31T17:57:25.856Z,98408.70
2022-12-31T18:00:29.368Z,98405.01
2022-12-31T18:03:32.767Z,98412.09
2022-12-31T18:06:36.000Z,98412.95
2022-12-31T18:09:39.227Z,98411.94
2022-12-31T18:12:44.610Z,98408.48
2022-12-31T18:15:48.783Z,98412.80
2022-12-31T18:18:52.122Z,98419.56
2022-12-31T18:21:57.709Z,98416.65
2022-12-31T18:25:01.158Z,98422.30
2022-12-31T18:28:09.548Z,98421.21
2022-12-31T18:31:39.502Z,98425.21
2022-12-31T18:34:42.710Z,98419.09
2022-12-31T18:37:46.440Z,98424.04
2022-12-31T18:40:59.121Z,98424.83
2022-12-31T18:44:02.404Z,98416.41
2022-12-31T18:47:15.095Z,98417.13
2022-12-31T18:53:40.783Z,98423.48
2022-12-31T18:56:48.313Z,98422.69
2022-12-31T18:59:55.102Z,98420.34
2022-12-31T19:02:58.642Z,98417.67
2022-12-31T19:06:02.138Z,98423.40
2022-12-31T19:09:13.258Z,98425.20
2022-12-31T19:12:29.786Z,98433.62
2022-12-31T19:15:39.059Z,98435.19
2022-12-31T19:18:42.731Z,98446.04
2022-12-31T19:21:46.266Z,98444.54
2022-12-31T19:24:49.636Z,98439.35
2022-12-31T19:27:53.434Z,98439.11
2022-12-31T19:30:56.719Z,98431.19
2022-12-31T19:34:00.004Z,98417.66
2022-12-31T19:37:03.455Z,98413.58
2022-12-31T19:40:07.900Z,98421.98
2022-12-31T19:43:14.597Z,98429.84
2022-12-31T19:46:18.821Z,98436.52
2022-12-31T19:49:22.144Z,98441.70
2022-12-31T19:52:25.605Z,98436.98
2022-12-31T19:55:28.880Z,98437.85
2022-12-31T19:58:32.117Z,98437.30
2022-12-31T20:01:35.547Z,98440.60
2022-12-31T20:04:38.797Z,98449.73
2022-12-31T20:07:42.182Z,98455.54
2022-12-31T20:10:46.067Z,98452.63
2022-12-31T20:13:52.225Z,98451.52
2022-12-31T20:16:56.226Z,98451.60
2022-12-31T20:19:59.681Z,98443.75
2022-12-31T20:23:02.942Z,98440.21
2022-12-31T20:26:06.223Z,98438.80
2022-12-31T20:29:09.471Z,98425.13
2022-12-31T20:32:12.753Z,98417.58
2022-12-31T20:35:16.343Z,98421.59
2022-12-31T20:38:19.640Z,98428.81
2022-12-31T20:41:23.644Z,98426.48
2022-12-31T20:44:26.936Z,98431.58
2022-12-31T20:47:30.088Z,98429.69
2022-12-31T20:50:33.288Z,98436.77
2022-12-31T20:53:36.715Z,98433.30
2022-12-31T20:56:41.572Z,98438.50
2022-12-31T20:59:44.793Z,98440.08
2022-12-31T21:02:56.361Z,98441.88
2022-12-31T21:06:01.219Z,98427.65
2022-12-31T21:09:07.603Z,98421.61
2022-12-31T21:12:32.518Z,98421.99
2022-12-31T21:15:35.898Z,98425.69
2022-12-31T21:18:39.213Z,98427.26
2022-12-31T21:21:42.558Z,98437.87
2022-12-31T21:24:48.233Z,98436.77
2022-12-31T21:27:51.500Z,98436.54
2022-12-31T21:31:03.731Z,98438.66
2022-12-31T21:34:08.686Z,98440.55
2022-12-31T21:37:11.977Z,98440.63
2022-12-31T21:40:15.299Z,98437.87
2022-12-31T21:43:18.565Z,98441.64
2022-12-31T21:46:21.795Z,98449.34
2022-12-31T21:49:25.479Z,98452.80
2022-12-31T21:52:31.695Z,98458.23
2022-12-31T21:55:56.917Z,98469.15
2022-12-31T21:59:18.696Z,98471.73
2022-12-31T22:02:41.170Z,98471.05
2022-12-31T22:06:16.195Z,98473.64
2022-12-31T22:09:19.490Z,98478.66
2022-12-31T22:12:22.745Z,98474.35
2022-12-31T22:15:26.004Z,98479.38
2022-12-31T22:18:29.639Z,98477.73
2022-12-31T22:21:32.973Z,98477.81
2022-12-31T22:24:36.153Z,98476.32
2022-12-31T22:27:39.614Z,98477.26
2022-12-31T22:30:42.773Z,98478.98
2022-12-31T22:33:46.458Z,98478.20
2022-12-31T22:36:49.716Z,98481.73
2022-12-31T22:39:52.941Z,98477.81
2022-12-31T22:42:56.163Z,98482.20
2022-12-31T22:45:59.396Z,98476.70
2022-12-31T22:49:04.436Z,98468.70
2022-12-31T22:52:08.992Z,98462.55
2022-12-31T22:55:12.267Z,98469.08
2022-12-31T22:58:15.508Z,98472.14
2022-12-31T23:01:22.626Z,98476.00
2022-12-31T23:04:25.993Z,98479.77
2022-12-31T23:07:29.223Z,98485.27
2022-12-31T23:10:50.870Z,98485.52
2022-12-31T23:14:12.688Z,98488.83
2022-12-31T23:17:43.560Z,98478.91
2022-12-31T23:21:05.308Z,98473.40
2022-12-31T23:24:15.699Z,98462.02
2022-12-31T23:27:22.651Z,98472.07
2022-12-31T23:30:25.964Z,98473.96
2022-12-31T23:33:29.135Z,98471.84
2022-12-31T23:36:32.641Z,98475.85
2022-12-31T23:39:35.897Z,98474.83
2022-12-31T23:42:39.370Z,98479.16
2022-12-31T23:45:42.550Z,98477.50
2022-12-31T23:48:45.754Z,98482.69
2022-12-31T23:51:49.065Z,98482.30
2022-12-31T23:54:52.348Z,98483.49
2022-12-31T23:57:55.531Z,98481.37
